sensor_id;sensor_type;location;lat;lon;timestamp;temperature;humidity
67799;SHT30;54596;43.216;27.904;2022-12-17T00:00:06;12.13;95.92
67799;SHT30;54596;43.216;27.904;2022-12-17T00:02:58;12.08;95.89
67799;SHT30;54596;43.216;27.904;2022-12-17T00:05:43;12.02;95.80
67799;SHT30;54596;43.216;27.904;2022-12-17T00:08:27;12.00;95.69
67799;SHT30;54596;43.216;27.904;2022-12-17T00:11:11;11.98;95.67
67799;SHT30;54596;43.216;27.904;2022-12-17T00:13:55;11.94;95.57
67799;SHT30;54596;43.216;27.904;2022-12-17T00:16:39;11.93;95.57
67799;SHT30;54596;43.216;27.904;2022-12-17T00:19:23;11.89;95.62
67799;SHT30;54596;43.216;27.904;2022-12-17T00:22:07;11.89;95.62
67799;SHT30;54596;43.216;27.904;2022-12-17T00:24:51;11.84;95.60
67799;SHT30;54596;43.216;27.904;2022-12-17T00:27:35;11.84;95.67
67799;SHT30;54596;43.216;27.904;2022-12-17T00:30:19;11.83;95.77
67799;SHT30;54596;43.216;27.904;2022-12-17T00:33:03;11.84;95.58
67799;SHT30;54596;43.216;27.904;2022-12-17T00:35:54;11.79;95.69
67799;SHT30;54596;43.216;27.904;2022-12-17T00:38:38;11.76;95.67
67799;SHT30;54596;43.216;27.904;2022-12-17T00:41:22;11.77;95.84
67799;SHT30;54596;43.216;27.904;2022-12-17T00:44:06;11.79;95.92
67799;SHT30;54596;43.216;27.904;2022-12-17T00:46:50;11.73;95.75
67799;SHT30;54596;43.216;27.904;2022-12-17T00:49:34;11.73;95.84
67799;SHT30;54596;43.216;27.904;2022-12-17T00:52:18;11.70;95.77
67799;SHT30;54596;43.216;27.904;2022-12-17T00:55:02;11.67;96.05
67799;SHT30;54596;43.216;27.904;2022-12-17T00:57:52;11.63;96.07
67799;SHT30;54596;43.216;27.904;2022-12-17T01:00:36;11.63;95.93
67799;SHT30;54596;43.216;27.904;2022-12-17T01:03:20;11.59;95.76
67799;SHT30;54596;43.216;27.904;2022-12-17T01:06:04;11.56;95.80
67799;SHT30;54596;43.216;27.904;2022-12-17T01:08:47;11.56;95.65
67799;SHT30;54596;43.216;27.904;2022-12-17T01:11:31;11.51;95.51
67799;SHT30;54596;43.216;27.904;2022-12-17T01:14:16;11.49;95.52
67799;SHT30;54596;43.216;27.904;2022-12-17T01:17:00;11.46;95.62
67799;SHT30;54596;43.216;27.904;2022-12-17T01:19:43;11.46;95.68
67799;SHT30;54596;43.216;27.904;2022-12-17T01:22:27;11.48;95.73
67799;SHT30;54596;43.216;27.904;2022-12-17T01:25:11;11.48;95.78
67799;SHT30;54596;43.216;27.904;2022-12-17T01:27:55;11.49;95.59
67799;SHT30;54596;43.216;27.904;2022-12-17T01:30:39;11.46;95.33
67799;SHT30;54596;43.216;27.904;2022-12-17T01:33:23;11.43;95.52
67799;SHT30;54596;43.216;27.904;2022-12-17T01:36:07;11.42;95.35
67799;SHT30;54596;43.216;27.904;2022-12-17T01:38:51;11.40;95.66
67799;SHT30;54596;43.216;27.904;2022-12-17T01:41:35;11.39;95.56
67799;SHT30;54596;43.216;27.904;2022-12-17T01:44:55;11.35;95.69
67799;SHT30;54596;43.216;27.904;2022-12-17T01:47:49;11.35;95.60
67799;SHT30;54596;43.216;27.904;2022-12-17T01:50:36;11.34;95.55
67799;SHT30;54596;43.216;27.904;2022-12-17T01:53:25;11.32;95.51
67799;SHT30;54596;43.216;27.904;2022-12-17T01:56:10;11.31;95.63
67799;SHT30;54596;43.216;27.904;2022-12-17T01:58:54;11.28;95.56
67799;SHT30;54596;43.216;27.904;2022-12-17T02:01:38;11.25;95.46
67799;SHT30;54596;43.216;27.904;2022-12-17T02:04:23;11.22;95.25
67799;SHT30;54596;43.216;27.904;2022-12-17T02:14:02;11.12;95.31
67799;SHT30;54596;43.216;27.904;2022-12-17T02:16:51;11.12;95.30
67799;SHT30;54596;43.216;27.904;2022-12-17T02:25:49;11.11;95.41
67799;SHT30;54596;43.216;27.904;2022-12-17T02:28:34;11.11;95.36
67799;SHT30;54596;43.216;27.904;2022-12-17T02:31:19;11.07;95.35
67799;SHT30;54596;43.216;27.904;2022-12-17T02:34:05;11.01;95.35
67799;SHT30;54596;43.216;27.904;2022-12-17T02:36:49;11.00;95.58
67799;SHT30;54596;43.216;27.904;2022-12-17T02:39:33;11.01;95.72
67799;SHT30;54596;43.216;27.904;2022-12-17T02:42:17;11.00;95.72
67799;SHT30;54596;43.216;27.904;2022-12-17T02:45:02;11.00;95.69
67799;SHT30;54596;43.216;27.904;2022-12-17T02:47:47;11.01;95.72
67799;SHT30;54596;43.216;27.904;2022-12-17T02:50:32;11.10;96.22
67799;SHT30;54596;43.216;27.904;2022-12-17T02:53:18;11.14;96.45
67799;SHT30;54596;43.216;27.904;2022-12-17T02:56:03;11.25;96.40
67799;SHT30;54596;43.216;27.904;2022-12-17T02:58:47;11.27;96.42
67799;SHT30;54596;43.216;27.904;2022-12-17T03:01:31;11.28;96.17
67799;SHT30;54596;43.216;27.904;2022-12-17T03:04:15;11.28;96.01
67799;SHT30;54596;43.216;27.904;2022-12-17T03:06:58;11.28;96.21
67799;SHT30;54596;43.216;27.904;2022-12-17T03:09:42;11.29;96.26
67799;SHT30;54596;43.216;27.904;2022-12-17T03:12:26;11.31;96.04
67799;SHT30;54596;43.216;27.904;2022-12-17T03:15:18;11.29;95.84
67799;SHT30;54596;43.216;27.904;2022-12-17T03:18:02;11.28;96.01
67799;SHT30;54596;43.216;27.904;2022-12-17T03:20:46;11.27;95.95
67799;SHT30;54596;43.216;27.904;2022-12-17T03:23:30;11.25;95.76
67799;SHT30;54596;43.216;27.904;2022-12-17T03:26:14;11.24;95.71
67799;SHT30;54596;43.216;27.904;2022-12-17T03:28:58;11.25;95.61
67799;SHT30;54596;43.216;27.904;2022-12-17T03:31:42;11.20;95.76
67799;SHT30;54596;43.216;27.904;2022-12-17T03:34:26;11.20;95.69
67799;SHT30;54596;43.216;27.904;2022-12-17T03:37:10;11.18;95.56
67799;SHT30;54596;43.216;27.904;2022-12-17T03:39:54;11.18;95.50
67799;SHT30;54596;43.216;27.904;2022-12-17T03:42:38;11.14;95.47
67799;SHT30;54596;43.216;27.904;2022-12-17T03:45:22;11.10;95.33
67799;SHT30;54596;43.216;27.904;2022-12-17T03:48:08;11.10;95.26
67799;SHT30;54596;43.216;27.904;2022-12-17T03:50:53;11.08;95.41
67799;SHT30;54596;43.216;27.904;2022-12-17T03:53:38;11.08;95.34
67799;SHT30;54596;43.216;27.904;2022-12-17T03:56:22;11.07;95.55
67799;SHT30;54596;43.216;27.904;2022-12-17T03:59:06;11.10;95.61
67799;SHT30;54596;43.216;27.904;2022-12-17T04:01:50;11.07;95.62
67799;SHT30;54596;43.216;27.904;2022-12-17T04:04:34;11.07;95.66
67799;SHT30;54596;43.216;27.904;2022-12-17T04:07:18;11.03;95.61
67799;SHT30;54596;43.216;27.904;2022-12-17T04:10:02;11.07;95.64
67799;SHT30;54596;43.216;27.904;2022-12-17T04:12:47;11.04;95.52
67799;SHT30;54596;43.216;27.904;2022-12-17T04:15:31;11.04;95.59
67799;SHT30;54596;43.216;27.904;2022-12-17T04:18:15;11.07;95.56
67799;SHT30;54596;43.216;27.904;2022-12-17T04:20:58;11.07;95.87
67799;SHT30;54596;43.216;27.904;2022-12-17T04:23:42;11.08;95.77
67799;SHT30;54596;43.216;27.904;2022-12-17T04:26:26;11.11;95.73
67799;SHT30;54596;43.216;27.904;2022-12-17T04:29:10;11.11;95.62
67799;SHT30;54596;43.216;27.904;2022-12-17T04:31:54;11.08;95.59
67799;SHT30;54596;43.216;27.904;2022-12-17T04:34:38;11.06;95.57
67799;SHT30;54596;43.216;27.904;2022-12-17T04:37:22;11.07;95.75
67799;SHT30;54596;43.216;27.904;2022-12-17T04:40:07;11.04;95.78
67799;SHT30;54596;43.216;27.904;2022-12-17T04:42:51;11.04;95.71
67799;SHT30;54596;43.216;27.904;2022-12-17T04:45:35;11.10;95.88
67799;SHT30;54596;43.216;27.904;2022-12-17T04:48:19;11.07;95.86
67799;SHT30;54596;43.216;27.904;2022-12-17T04:51:03;11.11;96.17
67799;SHT30;54596;43.216;27.904;2022-12-17T04:53:47;11.12;95.95
67799;SHT30;54596;43.216;27.904;2022-12-17T04:56:31;11.11;95.97
67799;SHT30;54596;43.216;27.904;2022-12-17T04:59:15;11.11;96.00
67799;SHT30;54596;43.216;27.904;2022-12-17T05:01:59;11.11;96.00
67799;SHT30;54596;43.216;27.904;2022-12-17T05:04:42;11.15;96.01
67799;SHT30;54596;43.216;27.904;2022-12-17T05:07:26;11.12;95.96
67799;SHT30;54596;43.216;27.904;2022-12-17T05:10:10;11.15;95.86
67799;SHT30;54596;43.216;27.904;2022-12-17T05:12:57;11.15;95.84
67799;SHT30;54596;43.216;27.904;2022-12-17T05:15:41;11.14;95.70
67799;SHT30;54596;43.216;27.904;2022-12-17T05:18:25;11.15;95.90
67799;SHT30;54596;43.216;27.904;2022-12-17T05:21:09;11.21;96.17
67799;SHT30;54596;43.216;27.904;2022-12-17T05:23:53;11.34;96.74
67799;SHT30;54596;43.216;27.904;2022-12-17T05:26:36;11.35;96.06
67799;SHT30;54596;43.216;27.904;2022-12-17T05:29:20;11.32;95.84
67799;SHT30;54596;43.216;27.904;2022-12-17T05:32:04;11.38;96.13
67799;SHT30;54596;43.216;27.904;2022-12-17T05:34:48;11.46;96.35
67799;SHT30;54596;43.216;27.904;2022-12-17T05:37:32;11.42;95.69
67799;SHT30;54596;43.216;27.904;2022-12-17T05:40:16;11.40;95.85
67799;SHT30;54596;43.216;27.904;2022-12-17T05:43:03;11.42;95.68
67799;SHT30;54596;43.216;27.904;2022-12-17T05:45:47;11.40;95.57
67799;SHT30;54596;43.216;27.904;2022-12-17T05:48:32;11.48;95.62
67799;SHT30;54596;43.216;27.904;2022-12-17T05:51:16;11.55;95.58
67799;SHT30;54596;43.216;27.904;2022-12-17T05:54:01;11.55;95.32
67799;SHT30;54596;43.216;27.904;2022-12-17T05:56:44;11.65;95.50
67799;SHT30;54596;43.216;27.904;2022-12-17T05:59:28;11.66;95.12
67799;SHT30;54596;43.216;27.904;2022-12-17T06:02:12;11.70;94.88
67799;SHT30;54596;43.216;27.904;2022-12-17T06:05:01;11.77;95.04
67799;SHT30;54596;43.216;27.904;2022-12-17T06:07:45;11.74;95.02
67799;SHT30;54596;43.216;27.904;2022-12-17T06:10:29;11.83;95.11
67799;SHT30;54596;43.216;27.904;2022-12-17T06:13:13;11.87;94.83
67799;SHT30;54596;43.216;27.904;2022-12-17T06:15:57;11.94;95.34
67799;SHT30;54596;43.216;27.904;2022-12-17T06:18:40;12.04;94.98
67799;SHT30;54596;43.216;27.904;2022-12-17T06:21:24;12.08;95.03
67799;SHT30;54596;43.216;27.904;2022-12-17T06:24:08;12.13;94.87
67799;SHT30;54596;43.216;27.904;2022-12-17T06:26:52;12.28;95.73
67799;SHT30;54596;43.216;27.904;2022-12-17T06:29:36;12.41;95.55
67799;SHT30;54596;43.216;27.904;2022-12-17T06:32:20;12.46;95.13
67799;SHT30;54596;43.216;27.904;2022-12-17T06:35:05;12.67;95.51
67799;SHT30;54596;43.216;27.904;2022-12-17T06:38:04;12.86;95.03
67799;SHT30;54596;43.216;27.904;2022-12-17T06:40:50;12.90;94.09
67799;SHT30;54596;43.216;27.904;2022-12-17T06:43:34;12.94;94.04
67799;SHT30;54596;43.216;27.904;2022-12-17T06:46:18;12.97;94.55
67799;SHT30;54596;43.216;27.904;2022-12-17T06:49:02;13.03;94.13
67799;SHT30;54596;43.216;27.904;2022-12-17T06:51:46;13.01;93.70
67799;SHT30;54596;43.216;27.904;2022-12-17T06:54:30;13.08;94.28
67799;SHT30;54596;43.216;27.904;2022-12-17T06:57:14;13.11;93.89
67799;SHT30;54596;43.216;27.904;2022-12-17T06:59:57;13.08;93.72
67799;SHT30;54596;43.216;27.904;2022-12-17T07:02:41;13.07;93.68
67799;SHT30;54596;43.216;27.904;2022-12-17T07:05:26;13.12;93.93
67799;SHT30;54596;43.216;27.904;2022-12-17T07:08:10;13.16;93.91
67799;SHT30;54596;43.216;27.904;2022-12-17T07:10:54;13.18;94.21
67799;SHT30;54596;43.216;27.904;2022-12-17T07:13:38;13.22;94.21
67799;SHT30;54596;43.216;27.904;2022-12-17T07:16:22;13.28;94.38
67799;SHT30;54596;43.216;27.904;2022-12-17T07:19:06;13.39;94.50
67799;SHT30;54596;43.216;27.904;2022-12-17T07:21:50;13.46;94.34
67799;SHT30;54596;43.216;27.904;2022-12-17T07:24:33;13.52;94.23
67799;SHT30;54596;43.216;27.904;2022-12-17T07:27:18;13.67;94.27
67799;SHT30;54596;43.216;27.904;2022-12-17T07:30:02;13.76;94.18
67799;SHT30;54596;43.216;27.904;2022-12-17T07:32:46;13.85;93.99
67799;SHT30;54596;43.216;27.904;2022-12-17T07:35:30;13.97;94.15
67799;SHT30;54596;43.216;27.904;2022-12-17T07:38:14;14.04;93.62
67799;SHT30;54596;43.216;27.904;2022-12-17T07:40:58;14.11;93.50
67799;SHT30;54596;43.216;27.904;2022-12-17T07:43:42;14.17;93.51
67799;SHT30;54596;43.216;27.904;2022-12-17T07:46:26;14.24;93.30
67799;SHT30;54596;43.216;27.904;2022-12-17T07:49:10;14.29;93.42
67799;SHT30;54596;43.216;27.904;2022-12-17T07:51:54;14.36;93.38
67799;SHT30;54596;43.216;27.904;2022-12-17T07:54:38;14.42;93.29
67799;SHT30;54596;43.216;27.904;2022-12-17T07:57:22;14.47;93.30
67799;SHT30;54596;43.216;27.904;2022-12-17T08:00:06;14.49;92.82
67799;SHT30;54596;43.216;27.904;2022-12-17T08:02:58;14.59;93.28
67799;SHT30;54596;43.216;27.904;2022-12-17T08:05:42;14.67;93.12
67799;SHT30;54596;43.216;27.904;2022-12-17T08:08:25;14.69;92.82
67799;SHT30;54596;43.216;27.904;2022-12-17T08:11:09;14.73;93.00
67799;SHT30;54596;43.216;27.904;2022-12-17T08:13:53;14.77;92.76
67799;SHT30;54596;43.216;27.904;2022-12-17T08:16:51;14.85;92.54
67799;SHT30;54596;43.216;27.904;2022-12-17T08:19:35;14.91;92.50
67799;SHT30;54596;43.216;27.904;2022-12-17T08:22:19;15.04;92.61
67799;SHT30;54596;43.216;27.904;2022-12-17T08:25:03;15.07;92.35
67799;SHT30;54596;43.216;27.904;2022-12-17T08:27:47;15.16;92.20
67799;SHT30;54596;43.216;27.904;2022-12-17T08:30:37;15.22;92.03
67799;SHT30;54596;43.216;27.904;2022-12-17T08:33:21;15.31;91.89
67799;SHT30;54596;43.216;27.904;2022-12-17T08:36:05;15.40;91.71
67799;SHT30;54596;43.216;27.904;2022-12-17T08:38:49;15.47;91.58
67799;SHT30;54596;43.216;27.904;2022-12-17T08:41:33;15.53;91.29
67799;SHT30;54596;43.216;27.904;2022-12-17T08:44:17;15.59;91.34
67799;SHT30;54596;43.216;27.904;2022-12-17T08:47:02;15.64;90.96
67799;SHT30;54596;43.216;27.904;2022-12-17T08:49:47;15.70;91.08
67799;SHT30;54596;43.216;27.904;2022-12-17T08:52:31;15.78;90.86
67799;SHT30;54596;43.216;27.904;2022-12-17T08:55:15;15.87;90.87
67799;SHT30;54596;43.216;27.904;2022-12-17T08:57:59;15.97;90.48
67799;SHT30;54596;43.216;27.904;2022-12-17T09:00:43;16.08;90.17
67799;SHT30;54596;43.216;27.904;2022-12-17T09:03:27;16.15;89.92
67799;SHT30;54596;43.216;27.904;2022-12-17T09:06:11;16.28;89.78
67799;SHT30;54596;43.216;27.904;2022-12-17T09:08:55;16.33;88.96
67799;SHT30;54596;43.216;27.904;2022-12-17T09:11:40;16.36;88.64
67799;SHT30;54596;43.216;27.904;2022-12-17T09:14:24;16.47;88.32
67799;SHT30;54596;43.216;27.904;2022-12-17T09:17:08;16.59;87.66
67799;SHT30;54596;43.216;27.904;2022-12-17T09:19:52;16.68;87.30
67799;SHT30;54596;43.216;27.904;2022-12-17T09:22:36;16.71;87.37
67799;SHT30;54596;43.216;27.904;2022-12-17T09:25:20;16.73;87.63
67799;SHT30;54596;43.216;27.904;2022-12-17T09:28:04;16.84;87.30
67799;SHT30;54596;43.216;27.904;2022-12-17T09:30:48;16.89;86.55
67799;SHT30;54596;43.216;27.904;2022-12-17T09:33:34;16.96;86.56
67799;SHT30;54596;43.216;27.904;2022-12-17T09:36:18;17.02;86.11
67799;SHT30;54596;43.216;27.904;2022-12-17T09:39:02;17.12;85.84
67799;SHT30;54596;43.216;27.904;2022-12-17T09:42:08;17.20;85.67
67799;SHT30;54596;43.216;27.904;2022-12-17T09:45:23;17.32;85.63
67799;SHT30;54596;43.216;27.904;2022-12-17T09:50:56;17.53;84.79
67799;SHT30;54596;43.216;27.904;2022-12-17T09:53:53;17.55;84.53
67799;SHT30;54596;43.216;27.904;2022-12-17T09:56:39;17.69;84.04
67799;SHT30;54596;43.216;27.904;2022-12-17T09:59:27;17.75;83.71
67799;SHT30;54596;43.216;27.904;2022-12-17T10:02:19;17.81;83.88
67799;SHT30;54596;43.216;27.904;2022-12-17T10:05:08;17.87;83.61
67799;SHT30;54596;43.216;27.904;2022-12-17T10:07:55;17.88;83.98
67799;SHT30;54596;43.216;27.904;2022-12-17T10:10:44;17.88;83.92
67799;SHT30;54596;43.216;27.904;2022-12-17T10:13:29;17.91;83.82
67799;SHT30;54596;43.216;27.904;2022-12-17T10:16:25;17.88;83.71
67799;SHT30;54596;43.216;27.904;2022-12-17T10:19:37;17.99;83.53
67799;SHT30;54596;43.216;27.904;2022-12-17T10:22:21;18.10;82.93
67799;SHT30;54596;43.216;27.904;2022-12-17T10:25:15;18.09;82.82
67799;SHT30;54596;43.216;27.904;2022-12-17T10:28:23;18.15;82.45
67799;SHT30;54596;43.216;27.904;2022-12-17T10:31:19;18.15;81.98
67799;SHT30;54596;43.216;27.904;2022-12-17T10:34:17;18.17;82.33
67799;SHT30;54596;43.216;27.904;2022-12-17T10:37:03;18.21;82.44
67799;SHT30;54596;43.216;27.904;2022-12-17T10:39:58;18.26;82.09
67799;SHT30;54596;43.216;27.904;2022-12-17T10:42:44;18.25;82.22
67799;SHT30;54596;43.216;27.904;2022-12-17T10:45:31;18.29;82.28
67799;SHT30;54596;43.216;27.904;2022-12-17T10:48:34;18.32;81.84
67799;SHT30;54596;43.216;27.904;2022-12-17T10:51:33;18.34;81.96
67799;SHT30;54596;43.216;27.904;2022-12-17T11:03:01;18.54;80.93
67799;SHT30;54596;43.216;27.904;2022-12-17T11:05:48;18.51;81.22
67799;SHT30;54596;43.216;27.904;2022-12-17T11:08:34;18.60;80.33
67799;SHT30;54596;43.216;27.904;2022-12-17T11:11:18;18.53;80.63
67799;SHT30;54596;43.216;27.904;2022-12-17T11:14:04;18.50;80.75
67799;SHT30;54596;43.216;27.904;2022-12-17T11:16:54;18.47;80.08
67799;SHT30;54596;43.216;27.904;2022-12-17T11:22:50;18.57;79.75
67799;SHT30;54596;43.216;27.904;2022-12-17T11:25:43;18.57;79.33
67799;SHT30;54596;43.216;27.904;2022-12-17T11:28:32;18.65;79.21
67799;SHT30;54596;43.216;27.904;2022-12-17T11:37:19;18.67;78.80
67799;SHT30;54596;43.216;27.904;2022-12-17T11:40:31;18.63;78.90
67799;SHT30;54596;43.216;27.904;2022-12-17T11:46:45;18.50;79.21
67799;SHT30;54596;43.216;27.904;2022-12-17T11:53:30;18.54;79.38
67799;SHT30;54596;43.216;27.904;2022-12-17T11:56:23;18.49;79.54
67799;SHT30;54596;43.216;27.904;2022-12-17T11:59:29;18.49;79.75
67799;SHT30;54596;43.216;27.904;2022-12-17T12:05:59;18.57;79.37
67799;SHT30;54596;43.216;27.904;2022-12-17T12:08:22;18.56;79.67
67799;SHT30;54596;43.216;27.904;2022-12-17T12:11:36;18.51;79.91
67799;SHT30;54596;43.216;27.904;2022-12-17T12:23:50;18.64;79.42
67799;SHT30;54596;43.216;27.904;2022-12-17T12:33:16;18.61;79.35
67799;SHT30;54596;43.216;27.904;2022-12-17T12:36:03;18.64;78.94
67799;SHT30;54596;43.216;27.904;2022-12-17T12:38:53;18.64;79.15
67799;SHT30;54596;43.216;27.904;2022-12-17T12:41:46;18.63;79.33
67799;SHT30;54596;43.216;27.904;2022-12-17T12:48:32;18.58;79.22
67799;SHT30;54596;43.216;27.904;2022-12-17T12:51:04;18.63;79.25
67799;SHT30;54596;43.216;27.904;2022-12-17T12:54:00;18.56;79.60
67799;SHT30;54596;43.216;27.904;2022-12-17T12:56:45;18.58;79.50
67799;SHT30;54596;43.216;27.904;2022-12-17T12:59:33;18.56;79.47
67799;SHT30;54596;43.216;27.904;2022-12-17T13:02:31;18.60;79.06
67799;SHT30;54596;43.216;27.904;2022-12-17T13:10:34;18.43;78.37
67799;SHT30;54596;43.216;27.904;2022-12-17T13:13:26;18.43;78.01
67799;SHT30;54596;43.216;27.904;2022-12-17T13:15:58;18.44;77.97
67799;SHT30;54596;43.216;27.904;2022-12-17T13:18:35;18.32;77.81
67799;SHT30;54596;43.216;27.904;2022-12-17T13:28:37;18.09;78.10
67799;SHT30;54596;43.216;27.904;2022-12-17T13:31:05;18.06;77.92
67799;SHT30;54596;43.216;27.904;2022-12-17T13:33:44;18.02;78.05
67799;SHT30;54596;43.216;27.904;2022-12-17T13:36:33;18.01;77.80
67799;SHT30;54596;43.216;27.904;2022-12-17T13:39:23;17.99;77.82
67799;SHT30;54596;43.216;27.904;2022-12-17T13:41:52;17.99;77.29
67799;SHT30;54596;43.216;27.904;2022-12-17T13:44:22;17.91;77.46
67799;SHT30;54596;43.216;27.904;2022-12-17T13:46:51;17.85;77.66
67799;SHT30;54596;43.216;27.904;2022-12-17T13:49:24;17.81;77.71
67799;SHT30;54596;43.216;27.904;2022-12-17T13:52:04;17.74;78.11
67799;SHT30;54596;43.216;27.904;2022-12-17T13:54:30;17.73;78.30
67799;SHT30;54596;43.216;27.904;2022-12-17T13:57:13;17.71;78.12
67799;SHT30;54596;43.216;27.904;2022-12-17T13:59:40;17.66;78.24
67799;SHT30;54596;43.216;27.904;2022-12-17T14:02:20;17.59;78.33
67799;SHT30;54596;43.216;27.904;2022-12-17T14:04:51;17.53;78.56
67799;SHT30;54596;43.216;27.904;2022-12-17T14:07:17;17.50;78.22
67799;SHT30;54596;43.216;27.904;2022-12-17T14:09:43;17.53;77.87
67799;SHT30;54596;43.216;27.904;2022-12-17T14:12:10;17.43;77.68
67799;SHT30;54596;43.216;27.904;2022-12-17T14:18:09;17.25;77.04
67799;SHT30;54596;43.216;27.904;2022-12-17T14:20:12;17.20;76.86
67799;SHT30;54596;43.216;27.904;2022-12-17T14:22:40;17.11;77.14
67799;SHT30;54596;43.216;27.904;2022-12-17T14:25:41;17.02;76.79
67799;SHT30;54596;43.216;27.904;2022-12-17T14:28:32;17.01;77.11
67799;SHT30;54596;43.216;27.904;2022-12-17T14:31:20;16.92;77.16
67799;SHT30;54596;43.216;27.904;2022-12-17T14:33:46;16.88;77.01
67799;SHT30;54596;43.216;27.904;2022-12-17T14:38:53;16.82;77.22
67799;SHT30;54596;43.216;27.904;2022-12-17T14:41:20;16.71;77.52
67799;SHT30;54596;43.216;27.904;2022-12-17T14:44:05;16.63;78.08
67799;SHT30;54596;43.216;27.904;2022-12-17T14:46:32;16.50;78.44
67799;SHT30;54596;43.216;27.904;2022-12-17T14:49:00;16.46;78.89
67799;SHT30;54596;43.216;27.904;2022-12-17T14:51:40;16.43;78.89
67799;SHT30;54596;43.216;27.904;2022-12-17T14:56:51;16.26;78.88
67799;SHT30;54596;43.216;27.904;2022-12-17T14:59:34;16.21;79.33
67799;SHT30;54596;43.216;27.904;2022-12-17T15:02:13;16.16;79.74
67799;SHT30;54596;43.216;27.904;2022-12-17T15:04:42;16.11;80.41
67799;SHT30;54596;43.216;27.904;2022-12-17T15:07:13;16.04;80.11
67799;SHT30;54596;43.216;27.904;2022-12-17T15:09:39;16.01;80.50
67799;SHT30;54596;43.216;27.904;2022-12-17T15:12:06;15.91;81.11
67799;SHT30;54596;43.216;27.904;2022-12-17T15:14:31;15.90;81.32
67799;SHT30;54596;43.216;27.904;2022-12-17T15:16:57;15.88;80.75
67799;SHT30;54596;43.216;27.904;2022-12-17T15:19:23;15.87;80.70
67799;SHT30;54596;43.216;27.904;2022-12-17T15:21:49;15.84;80.76
67799;SHT30;54596;43.216;27.904;2022-12-17T15:24:18;15.81;80.80
67799;SHT30;54596;43.216;27.904;2022-12-17T15:26:44;15.80;80.67
67799;SHT30;54596;43.216;27.904;2022-12-17T15:29:10;15.80;80.70
67799;SHT30;54596;43.216;27.904;2022-12-17T15:31:35;15.77;80.78
67799;SHT30;54596;43.216;27.904;2022-12-17T15:34:01;15.77;81.35
67799;SHT30;54596;43.216;27.904;2022-12-17T15:36:26;15.73;81.25
67799;SHT30;54596;43.216;27.904;2022-12-17T15:38:52;15.67;81.02
67799;SHT30;54596;43.216;27.904;2022-12-17T15:41:17;15.64;81.25
67799;SHT30;54596;43.216;27.904;2022-12-17T15:44:01;15.61;81.33
67799;SHT30;54596;43.216;27.904;2022-12-17T15:46:27;15.57;81.22
67799;SHT30;54596;43.216;27.904;2022-12-17T15:48:55;15.56;81.11
67799;SHT30;54596;43.216;27.904;2022-12-17T15:51:21;15.51;80.96
67799;SHT30;54596;43.216;27.904;2022-12-17T15:53:48;15.54;81.21
67799;SHT30;54596;43.216;27.904;2022-12-17T15:56:22;15.49;81.24
67799;SHT30;54596;43.216;27.904;2022-12-17T15:58:47;15.43;81.22
67799;SHT30;54596;43.216;27.904;2022-12-17T16:01:13;15.43;81.33
67799;SHT30;54596;43.216;27.904;2022-12-17T16:03:39;15.40;81.40
67799;SHT30;54596;43.216;27.904;2022-12-17T16:06:05;15.36;81.43
67799;SHT30;54596;43.216;27.904;2022-12-17T16:08:31;15.35;81.56
67799;SHT30;54596;43.216;27.904;2022-12-17T16:10:56;15.36;81.62
67799;SHT30;54596;43.216;27.904;2022-12-17T16:13:22;15.33;81.87
67799;SHT30;54596;43.216;27.904;2022-12-17T16:15:57;15.28;81.85
67799;SHT30;54596;43.216;27.904;2022-12-17T16:18:23;15.25;82.08
67799;SHT30;54596;43.216;27.904;2022-12-17T16:20:49;15.22;81.91
67799;SHT30;54596;43.216;27.904;2022-12-17T16:23:15;15.19;81.94
67799;SHT30;54596;43.216;27.904;2022-12-17T16:25:40;15.19;81.85
67799;SHT30;54596;43.216;27.904;2022-12-17T16:28:06;15.14;82.08
67799;SHT30;54596;43.216;27.904;2022-12-17T16:30:32;15.14;82.12
67799;SHT30;54596;43.216;27.904;2022-12-17T16:32:57;15.11;82.23
67799;SHT30;54596;43.216;27.904;2022-12-17T16:35:24;15.07;82.26
67799;SHT30;54596;43.216;27.904;2022-12-17T16:37:50;15.04;82.35
67799;SHT30;54596;43.216;27.904;2022-12-17T16:40:15;14.99;82.54
67799;SHT30;54596;43.216;27.904;2022-12-17T16:42:41;14.97;82.66
67799;SHT30;54596;43.216;27.904;2022-12-17T16:45:06;14.98;82.70
67799;SHT30;54596;43.216;27.904;2022-12-17T16:47:32;14.97;82.78
67799;SHT30;54596;43.216;27.904;2022-12-17T16:49:58;14.92;82.70
67799;SHT30;54596;43.216;27.904;2022-12-17T16:52:23;14.91;82.79
67799;SHT30;54596;43.216;27.904;2022-12-17T16:54:49;14.90;82.92
67799;SHT30;54596;43.216;27.904;2022-12-17T16:57:14;14.90;82.84
67799;SHT30;54596;43.216;27.904;2022-12-17T16:59:40;14.84;82.93
67799;SHT30;54596;43.216;27.904;2022-12-17T17:02:11;14.85;82.77
67799;SHT30;54596;43.216;27.904;2022-12-17T17:04:37;14.84;82.71
67799;SHT30;54596;43.216;27.904;2022-12-17T17:07:03;14.83;82.61
67799;SHT30;54596;43.216;27.904;2022-12-17T17:09:29;14.77;82.53
67799;SHT30;54596;43.216;27.904;2022-12-17T17:11:55;14.74;82.46
67799;SHT30;54596;43.216;27.904;2022-12-17T17:14:21;14.79;82.33
67799;SHT30;54596;43.216;27.904;2022-12-17T17:16:48;14.79;82.18
67799;SHT30;54596;43.216;27.904;2022-12-17T17:19:13;14.77;82.60
67799;SHT30;54596;43.216;27.904;2022-12-17T17:21:41;14.74;82.32
67799;SHT30;54596;43.216;27.904;2022-12-17T17:24:12;14.74;82.41
67799;SHT30;54596;43.216;27.904;2022-12-17T17:26:38;14.77;82.20
67799;SHT30;54596;43.216;27.904;2022-12-17T17:29:04;14.76;82.36
67799;SHT30;54596;43.216;27.904;2022-12-17T17:31:31;14.73;82.59
67799;SHT30;54596;43.216;27.904;2022-12-17T17:33:56;14.81;82.09
67799;SHT30;54596;43.216;27.904;2022-12-17T17:38:50;14.71;82.04
67799;SHT30;54596;43.216;27.904;2022-12-17T17:41:19;14.67;81.96
67799;SHT30;54596;43.216;27.904;2022-12-17T17:43:45;14.57;82.35
67799;SHT30;54596;43.216;27.904;2022-12-17T17:46:15;14.55;82.40
67799;SHT30;54596;43.216;27.904;2022-12-17T17:48:42;14.47;82.56
67799;SHT30;54596;43.216;27.904;2022-12-17T17:51:16;14.37;82.87
67799;SHT30;54596;43.216;27.904;2022-12-17T17:53:46;14.30;83.23
67799;SHT30;54596;43.216;27.904;2022-12-17T17:56:14;14.24;83.31
67799;SHT30;54596;43.216;27.904;2022-12-17T17:58:47;14.14;83.61
67799;SHT30;54596;43.216;27.904;2022-12-17T18:01:16;14.10;83.61
67799;SHT30;54596;43.216;27.904;2022-12-17T18:03:42;14.05;83.45
67799;SHT30;54596;43.216;27.904;2022-12-17T18:06:09;14.01;83.58
67799;SHT30;54596;43.216;27.904;2022-12-17T18:08:35;14.01;83.54